sensor_id;sensor_type;location;lat;lon;timestamp;pressure;altitude;pressure_sealevel;temperature;humidity
55468;BME280;41332;42.702;23.200;2022-09-09T00:01:54;94253.13;;;16.45;72.01
55468;BME280;41332;42.702;23.200;2022-09-09T00:04:27;94249.00;;;16.47;71.92
55468;BME280;41332;42.702;23.200;2022-09-09T00:07:01;94246.34;;;16.47;71.78
55468;BME280;41332;42.702;23.200;2022-09-09T00:09:31;94244.28;;;16.37;71.87
55468;BME280;41332;42.702;23.200;2022-09-09T00:12:06;94245.50;;;16.43;71.95
55468;BME280;41332;42.702;23.200;2022-09-09T00:17:38;94235.38;;;16.26;72.47
55468;BME280;41332;42.702;23.200;2022-09-09T00:20:14;94224.53;;;16.11;72.62
55468;BME280;41332;42.702;23.200;2022-09-09T00:22:47;94217.69;;;16.10;72.85
55468;BME280;41332;42.702;23.200;2022-09-09T00:25:28;94210.41;;;16.04;73.29
55468;BME280;41332;42.702;23.200;2022-09-09T00:27:57;94210.09;;;16.09;73.32
55468;BME280;41332;42.702;23.200;2022-09-09T00:30:33;94207.84;;;16.11;73.13
55468;BME280;41332;42.702;23.200;2022-09-09T00:33:02;94196.78;;;16.05;73.18
55468;BME280;41332;42.702;23.200;2022-09-09T00:35:42;94207.56;;;16.16;72.88
55468;BME280;41332;42.702;23.200;2022-09-09T00:41:14;94201.25;;;16.01;73.21
55468;BME280;41332;42.702;23.200;2022-09-09T00:43:41;94210.97;;;15.93;73.45
55468;BME280;41332;42.702;23.200;2022-09-09T00:57:22;94219.03;;;16.01;73.63
55468;BME280;41332;42.702;23.200;2022-09-09T01:00:42;94200.47;;;16.01;73.31
55468;BME280;41332;42.702;23.200;2022-09-09T01:03:08;94212.34;;;16.07;73.25
55468;BME280;41332;42.702;23.200;2022-09-09T01:05:47;94210.09;;;16.09;73.31
55468;BME280;41332;42.702;23.200;2022-09-09T01:11:09;94207.03;;;16.07;73.26
55468;BME280;41332;42.702;23.200;2022-09-09T01:13:36;94212.25;;;16.03;73.23
55468;BME280;41332;42.702;23.200;2022-09-09T01:16:04;94211.97;;;16.08;73.48
55468;BME280;41332;42.702;23.200;2022-09-09T01:18:36;94212.97;;;16.00;73.47
55468;BME280;41332;42.702;23.200;2022-09-09T01:21:14;94206.88;;;15.99;73.13
55468;BME280;41332;42.702;23.200;2022-09-09T01:23:54;94209.59;;;16.03;73.03
55468;BME280;41332;42.702;23.200;2022-09-09T01:26:36;94225.56;;;16.07;73.02
55468;BME280;41332;42.702;23.200;2022-09-09T01:29:07;94219.38;;;15.99;72.98
55468;BME280;41332;42.702;23.200;2022-09-09T01:31:39;94210.19;;;15.93;73.46
55468;BME280;41332;42.702;23.200;2022-09-09T01:34:13;94212.16;;;15.96;73.21
55468;BME280;41332;42.702;23.200;2022-09-09T01:37:05;94222.66;;;15.92;73.38
55468;BME280;41332;42.702;23.200;2022-09-09T01:39:33;94217.19;;;15.81;73.79
55468;BME280;41332;42.702;23.200;2022-09-09T01:42:00;94227.69;;;15.78;74.09
55468;BME280;41332;42.702;23.200;2022-09-09T01:44:26;94227.16;;;15.72;74.66
55468;BME280;41332;42.702;23.200;2022-09-09T01:46:52;94219.47;;;15.63;74.85
55468;BME280;41332;42.702;23.200;2022-09-09T01:49:18;94228.72;;;15.54;74.87
55468;BME280;41332;42.702;23.200;2022-09-09T01:51:46;94222.22;;;15.51;75.32
55468;BME280;41332;42.702;23.200;2022-09-09T01:54:14;94224.25;;;15.58;75.15
55468;BME280;41332;42.702;23.200;2022-09-09T02:07:09;94220.56;;;15.62;74.70
55468;BME280;41332;42.702;23.200;2022-09-09T02:09:40;94213.09;;;15.48;74.83
55468;BME280;41332;42.702;23.200;2022-09-09T02:12:13;94205.31;;;15.56;74.96
55468;BME280;41332;42.702;23.200;2022-09-09T02:14:42;94211.38;;;15.56;74.75
55468;BME280;41332;42.702;23.200;2022-09-09T02:17:14;94219.59;;;15.51;75.14
55468;BME280;41332;42.702;23.200;2022-09-09T02:19:47;94217.97;;;15.46;75.27
55468;BME280;41332;42.702;23.200;2022-09-09T02:22:17;94217.22;;;15.46;75.26
55468;BME280;41332;42.702;23.200;2022-09-09T02:24:43;94213.59;;;15.54;75.08
55468;BME280;41332;42.702;23.200;2022-09-09T02:27:12;94223.91;;;15.59;74.81
55468;BME280;41332;42.702;23.200;2022-09-09T02:29:40;94226.81;;;15.54;74.93
55468;BME280;41332;42.702;23.200;2022-09-09T02:32:16;94220.28;;;15.48;75.05
55468;BME280;41332;42.702;23.200;2022-09-09T02:34:49;94220.13;;;15.41;75.37
55468;BME280;41332;42.702;23.200;2022-09-09T02:37:19;94234.81;;;15.38;75.82
55468;BME280;41332;42.702;23.200;2022-09-09T02:39:46;94237.00;;;15.32;75.97
55468;BME280;41332;42.702;23.200;2022-09-09T02:42:12;94235.53;;;15.35;76.35
55468;BME280;41332;42.702;23.200;2022-09-09T02:44:40;94226.47;;;15.36;76.08
55468;BME280;41332;42.702;23.200;2022-09-09T02:47:24;94233.81;;;15.43;75.83
55468;BME280;41332;42.702;23.200;2022-09-09T02:52:35;94226.63;;;15.43;75.20
55468;BME280;41332;42.702;23.200;2022-09-09T02:55:12;94234.63;;;15.47;75.18
55468;BME280;41332;42.702;23.200;2022-09-09T02:57:41;94228.16;;;15.44;75.06
55468;BME280;41332;42.702;23.200;2022-09-09T03:00:09;94228.78;;;15.38;75.47
55468;BME280;41332;42.702;23.200;2022-09-09T03:02:36;94229.44;;;15.35;75.45
55468;BME280;41332;42.702;23.200;2022-09-09T03:05:02;94226.41;;;15.32;75.45
55468;BME280;41332;42.702;23.200;2022-09-09T03:07:28;94222.63;;;15.33;75.50
55468;BME280;41332;42.702;23.200;2022-09-09T03:09:53;94218.31;;;15.25;76.11
55468;BME280;41332;42.702;23.200;2022-09-09T03:12:19;94226.50;;;15.20;76.25
55468;BME280;41332;42.702;23.200;2022-09-09T03:14:45;94240.09;;;15.19;76.38
55468;BME280;41332;42.702;23.200;2022-09-09T03:17:12;94219.91;;;15.10;76.50
55468;BME280;41332;42.702;23.200;2022-09-09T03:19:37;94229.03;;;15.13;76.98
55468;BME280;41332;42.702;23.200;2022-09-09T03:22:03;94228.94;;;15.09;77.08
55468;BME280;41332;42.702;23.200;2022-09-09T03:24:29;94230.13;;;15.12;76.98
55468;BME280;41332;42.702;23.200;2022-09-09T03:26:55;94215.00;;;15.12;77.00
55468;BME280;41332;42.702;23.200;2022-09-09T03:29:21;94219.91;;;15.10;76.76
55468;BME280;41332;42.702;23.200;2022-09-09T03:31:46;94217.03;;;15.19;76.52
55468;BME280;41332;42.702;23.200;2022-09-09T03:34:12;94209.44;;;15.18;76.60
55468;BME280;41332;42.702;23.200;2022-09-09T03:36:38;94215.31;;;15.27;76.54
55468;BME280;41332;42.702;23.200;2022-09-09T03:39:04;94208.00;;;15.20;76.66
55468;BME280;41332;42.702;23.200;2022-09-09T03:41:30;94210.44;;;15.29;76.22
55468;BME280;41332;42.702;23.200;2022-09-09T03:43:55;94215.09;;;15.16;77.12
55468;BME280;41332;42.702;23.200;2022-09-09T03:46:24;94229.16;;;15.20;76.82
55468;BME280;41332;42.702;23.200;2022-09-09T03:48:49;94231.31;;;15.14;77.18
55468;BME280;41332;42.702;23.200;2022-09-09T03:51:16;94232.06;;;15.15;76.98
55468;BME280;41332;42.702;23.200;2022-09-09T03:53:42;94217.31;;;15.14;77.10
55468;BME280;41332;42.702;23.200;2022-09-09T03:56:08;94221.22;;;15.20;77.04
55468;BME280;41332;42.702;23.200;2022-09-09T03:58:35;94225.06;;;15.23;77.02
55468;BME280;41332;42.702;23.200;2022-09-09T04:01:07;94228.13;;;15.25;76.79
55468;BME280;41332;42.702;23.200;2022-09-09T04:03:35;94239.38;;;15.22;76.74
55468;BME280;41332;42.702;23.200;2022-09-09T04:06:02;94224.56;;;15.17;76.82
55468;BME280;41332;42.702;23.200;2022-09-09T04:08:28;94228.06;;;15.21;76.63
55468;BME280;41332;42.702;23.200;2022-09-09T04:10:56;94234.53;;;15.24;76.80
55468;BME280;41332;42.702;23.200;2022-09-09T04:13:24;94231.06;;;15.20;76.88
55468;BME280;41332;42.702;23.200;2022-09-09T04:15:54;94222.06;;;15.24;76.95
55468;BME280;41332;42.702;23.200;2022-09-09T04:18:21;94227.78;;;15.26;77.09
55468;BME280;41332;42.702;23.200;2022-09-09T04:20:47;94220.03;;;15.18;77.37
55468;BME280;41332;42.702;23.200;2022-09-09T04:23:13;94228.31;;;15.16;77.44
55468;BME280;41332;42.702;23.200;2022-09-09T04:25:44;94232.91;;;15.19;77.41
55468;BME280;41332;42.702;23.200;2022-09-09T04:28:10;94245.88;;;15.24;77.24
55468;BME280;41332;42.702;23.200;2022-09-09T04:30:35;94237.59;;;15.26;77.37
55468;BME280;41332;42.702;23.200;2022-09-09T04:33:01;94238.44;;;15.30;77.40
55468;BME280;41332;42.702;23.200;2022-09-09T04:35:26;94230.84;;;15.28;77.79
55468;BME280;41332;42.702;23.200;2022-09-09T04:37:52;94247.72;;;15.40;77.59
55468;BME280;41332;42.702;23.200;2022-09-09T04:40:17;94236.78;;;15.41;77.54
55468;BME280;41332;42.702;23.200;2022-09-09T04:42:43;94235.75;;;15.46;77.46
55468;BME280;41332;42.702;23.200;2022-09-09T04:45:09;94238.03;;;15.47;77.45
55468;BME280;41332;42.702;23.200;2022-09-09T04:47:36;94227.59;;;15.55;77.83
55468;BME280;41332;42.702;23.200;2022-09-09T04:50:02;94220.69;;;15.70;77.48
55468;BME280;41332;42.702;23.200;2022-09-09T04:52:27;94219.38;;;15.79;77.41
55468;BME280;41332;42.702;23.200;2022-09-09T04:54:53;94219.47;;;15.83;77.38
55468;BME280;41332;42.702;23.200;2022-09-09T04:57:19;94216.53;;;15.88;77.46
55468;BME280;41332;42.702;23.200;2022-09-09T04:59:44;94220.22;;;16.03;77.09
55468;BME280;41332;42.702;23.200;2022-09-09T05:02:11;94210.09;;;16.09;76.87
55468;BME280;41332;42.702;23.200;2022-09-09T05:04:36;94192.50;;;16.20;77.01
55468;BME280;41332;42.702;23.200;2022-09-09T05:07:02;94193.88;;;16.34;76.64
55468;BME280;41332;42.702;23.200;2022-09-09T05:09:27;94195.44;;;16.38;76.52
55468;BME280;41332;42.702;23.200;2022-09-09T05:11:53;94211.94;;;16.28;77.05
55468;BME280;41332;42.702;23.200;2022-09-09T05:14:18;94218.31;;;16.23;77.64
55468;BME280;41332;42.702;23.200;2022-09-09T05:16:47;94204.03;;;16.31;78.20
55468;BME280;41332;42.702;23.200;2022-09-09T05:19:12;94199.09;;;16.30;78.83
55468;BME280;41332;42.702;23.200;2022-09-09T05:21:38;94191.59;;;16.36;79.01
55468;BME280;41332;42.702;23.200;2022-09-09T05:24:03;94196.28;;;16.42;78.57
55468;BME280;41332;42.702;23.200;2022-09-09T05:26:29;94212.13;;;16.62;78.14
55468;BME280;41332;42.702;23.200;2022-09-09T05:28:55;94208.75;;;16.65;76.96
55468;BME280;41332;42.702;23.200;2022-09-09T05:31:21;94216.16;;;16.79;75.95
55468;BME280;41332;42.702;23.200;2022-09-09T05:33:47;94213.31;;;16.91;75.21
55468;BME280;41332;42.702;23.200;2022-09-09T05:36:16;94212.09;;;16.85;74.72
55468;BME280;41332;42.702;23.200;2022-09-09T05:38:43;94217.28;;;16.78;73.60
55468;BME280;41332;42.702;23.200;2022-09-09T05:41:10;94221.97;;;16.88;73.67
55468;BME280;41332;42.702;23.200;2022-09-09T05:43:36;94227.31;;;17.15;73.59
55468;BME280;41332;42.702;23.200;2022-09-09T05:46:08;94218.25;;;17.20;72.54
55468;BME280;41332;42.702;23.200;2022-09-09T05:48:39;94225.66;;;17.34;72.51
55468;BME280;41332;42.702;23.200;2022-09-09T05:51:08;94221.25;;;17.45;72.64
55468;BME280;41332;42.702;23.200;2022-09-09T05:53:34;94217.97;;;17.55;71.58
55468;BME280;41332;42.702;23.200;2022-09-09T05:58:35;94226.69;;;17.90;70.42
55468;BME280;41332;42.702;23.200;2022-09-09T06:01:08;94229.34;;;17.90;70.04
55468;BME280;41332;42.702;23.200;2022-09-09T06:03:36;94231.09;;;17.75;70.38
55468;BME280;41332;42.702;23.200;2022-09-09T06:06:03;94236.63;;;17.93;70.42
55468;BME280;41332;42.702;23.200;2022-09-09T06:08:39;94227.34;;;18.14;70.48
55468;BME280;41332;42.702;23.200;2022-09-09T06:11:17;94226.66;;;18.20;69.54
55468;BME280;41332;42.702;23.200;2022-09-09T06:13:43;94238.66;;;18.44;70.09
55468;BME280;41332;42.702;23.200;2022-09-09T06:16:13;94230.16;;;18.76;68.91
55468;BME280;41332;42.702;23.200;2022-09-09T06:18:40;94234.94;;;18.98;68.49
55468;BME280;41332;42.702;23.200;2022-09-09T06:21:08;94226.31;;;19.19;67.74
55468;BME280;41332;42.702;23.200;2022-09-09T06:23:34;94237.47;;;19.39;66.80
55468;BME280;41332;42.702;23.200;2022-09-09T06:26:24;94236.78;;;19.60;65.21
55468;BME280;41332;42.702;23.200;2022-09-09T06:28:52;94233.78;;;19.69;65.40
55468;BME280;41332;42.702;23.200;2022-09-09T06:31:18;94233.09;;;19.86;65.26
55468;BME280;41332;42.702;23.200;2022-09-09T06:33:48;94229.34;;;19.95;64.47
55468;BME280;41332;42.702;23.200;2022-09-09T06:36:18;94221.38;;;20.09;64.38
55468;BME280;41332;42.702;23.200;2022-09-09T06:38:45;94227.84;;;20.04;64.59
55468;BME280;41332;42.702;23.200;2022-09-09T06:41:12;94219.44;;;19.99;63.36
55468;BME280;41332;42.702;23.200;2022-09-09T06:43:38;94221.63;;;19.79;63.99
55468;BME280;41332;42.702;23.200;2022-09-09T06:46:15;94229.34;;;19.91;63.56
55468;BME280;41332;42.702;23.200;2022-09-09T06:48:42;94231.69;;;20.21;63.58
55468;BME280;41332;42.702;23.200;2022-09-09T06:51:12;94237.84;;;20.44;64.50
55468;BME280;41332;42.702;23.200;2022-09-09T06:53:39;94238.59;;;20.69;62.83
55468;BME280;41332;42.702;23.200;2022-09-09T06:58:47;94240.50;;;20.69;59.94
55468;BME280;41332;42.702;23.200;2022-09-09T07:01:17;94241.25;;;20.51;60.69
55468;BME280;41332;42.702;23.200;2022-09-09T07:03:47;94238.22;;;20.49;61.17
55468;BME280;41332;42.702;23.200;2022-09-09T07:06:21;94244.34;;;20.71;60.80
55468;BME280;41332;42.702;23.200;2022-09-09T07:08:55;94227.56;;;20.82;60.19
55468;BME280;41332;42.702;23.200;2022-09-09T07:11:22;94222.25;;;20.71;60.28
55468;BME280;41332;42.702;23.200;2022-09-09T07:13:48;94222.25;;;20.85;60.69
55468;BME280;41332;42.702;23.200;2022-09-09T07:16:16;94231.72;;;21.08;59.59
55468;BME280;41332;42.702;23.200;2022-09-09T07:18:42;94230.97;;;21.26;57.57
55468;BME280;41332;42.702;23.200;2022-09-09T07:21:10;94222.88;;;21.51;57.78
55468;BME280;41332;42.702;23.200;2022-09-09T07:23:37;94223.66;;;21.44;57.41
55468;BME280;41332;42.702;23.200;2022-09-09T07:26:14;94220.25;;;21.36;56.45
55468;BME280;41332;42.702;23.200;2022-09-09T07:28:41;94223.69;;;21.37;57.53
55468;BME280;41332;42.702;23.200;2022-09-09T07:31:09;94214.84;;;21.65;56.74
55468;BME280;41332;42.702;23.200;2022-09-09T07:33:38;94224.34;;;21.70;56.22
55468;BME280;41332;42.702;23.200;2022-09-09T07:36:10;94214.31;;;21.96;55.65
55468;BME280;41332;42.702;23.200;2022-09-09T07:38:42;94219.59;;;22.06;55.25
55468;BME280;41332;42.702;23.200;2022-09-09T07:41:13;94226.78;;;22.24;53.83
55468;BME280;41332;42.702;23.200;2022-09-09T07:43:39;94226.13;;;22.69;54.07
55468;BME280;41332;42.702;23.200;2022-09-09T07:46:06;94212.88;;;22.96;52.79
55468;BME280;41332;42.702;23.200;2022-09-09T07:48:31;94224.47;;;23.28;52.83
55468;BME280;41332;42.702;23.200;2022-09-09T07:51:15;94229.13;;;23.20;52.04
55468;BME280;41332;42.702;23.200;2022-09-09T07:53:46;94228.31;;;23.27;52.73
55468;BME280;41332;42.702;23.200;2022-09-09T07:56:16;94227.69;;;23.50;52.33
55468;BME280;41332;42.702;23.200;2022-09-09T07:58:44;94223.31;;;23.29;52.71
55468;BME280;41332;42.702;23.200;2022-09-09T08:01:22;94225.41;;;23.48;51.34
55468;BME280;41332;42.702;23.200;2022-09-09T08:03:52;94233.22;;;23.70;51.43
55468;BME280;41332;42.702;23.200;2022-09-09T08:06:18;94228.16;;;23.41;52.51
55468;BME280;41332;42.702;23.200;2022-09-09T08:08:44;94219.06;;;23.35;52.21
55468;BME280;41332;42.702;23.200;2022-09-09T08:11:14;94222.69;;;23.52;52.05
55468;BME280;41332;42.702;23.200;2022-09-09T08:13:42;94225.84;;;23.43;52.33
55468;BME280;41332;42.702;23.200;2022-09-09T08:28:12;94213.81;;;23.93;49.67
55468;BME280;41332;42.702;23.200;2022-09-09T08:30:37;94207.38;;;23.83;49.59
55468;BME280;41332;42.702;23.200;2022-09-09T08:33:03;94211.66;;;23.77;51.40
55468;BME280;41332;42.702;23.200;2022-09-09T08:35:28;94215.84;;;23.82;50.52
55468;BME280;41332;42.702;23.200;2022-09-09T08:37:57;94219.06;;;24.00;50.36
55468;BME280;41332;42.702;23.200;2022-09-09T08:40:27;94213.13;;;23.85;50.03
55468;BME280;41332;42.702;23.200;2022-09-09T08:42:57;94217.00;;;23.81;49.86
55468;BME280;41332;42.702;23.200;2022-09-09T08:46:06;94212.34;;;23.85;50.47
55468;BME280;41332;42.702;23.200;2022-09-09T08:51:07;94212.47;;;24.36;49.98
55468;BME280;41332;42.702;23.200;2022-09-09T08:54:00;94207.41;;;24.14;49.51
55468;BME280;41332;42.702;23.200;2022-09-09T08:56:28;94212.19;;;23.99;49.27
55468;BME280;41332;42.702;23.200;2022-09-09T08:58:56;94210.47;;;23.82;49.77
55468;BME280;41332;42.702;23.200;2022-09-09T09:05:08;94208.09;;;23.87;50.30
55468;BME280;41332;42.702;23.200;2022-09-09T09:07:47;94210.63;;;24.02;50.17
55468;BME280;41332;42.702;23.200;2022-09-09T09:10:49;94213.03;;;23.89;49.60
55468;BME280;41332;42.702;23.200;2022-09-09T09:13:27;94209.69;;;23.81;49.59
55468;BME280;41332;42.702;23.200;2022-09-09T09:16:00;94205.78;;;23.90;50.70
55468;BME280;41332;42.702;23.200;2022-09-09T09:18:27;94206.78;;;24.03;49.53
55468;BME280;41332;42.702;23.200;2022-09-09T09:24:01;94202.97;;;24.28;49.83
55468;BME280;41332;42.702;23.200;2022-09-09T09:26:34;94207.19;;;24.29;49.14
55468;BME280;41332;42.702;23.200;2022-09-09T09:29:08;94215.03;;;24.43;48.53
55468;BME280;41332;42.702;23.200;2022-09-09T09:31:35;94207.28;;;24.49;48.90
55468;BME280;41332;42.702;23.200;2022-09-09T09:34:00;94193.34;;;24.30;48.49
55468;BME280;41332;42.702;23.200;2022-09-09T09:36:35;94192.66;;;24.26;49.35
55468;BME280;41332;42.702;23.200;2022-09-09T09:39:04;94197.28;;;24.26;48.47
55468;BME280;41332;42.702;23.200;2022-09-09T09:41:42;94190.03;;;24.23;49.85
55468;BME280;41332;42.702;23.200;2022-09-09T09:44:26;94193.69;;;24.36;48.98
55468;BME280;41332;42.702;23.200;2022-09-09T09:46:53;94193.47;;;24.50;49.30
55468;BME280;41332;42.702;23.200;2022-09-09T09:49:18;94193.91;;;24.73;48.87
55468;BME280;41332;42.702;23.200;2022-09-09T09:51:44;94196.66;;;24.69;47.80
55468;BME280;41332;42.702;23.200;2022-09-09T09:56:39;94184.31;;;24.72;47.25
55468;BME280;41332;42.702;23.200;2022-09-09T09:59:05;94187.78;;;24.72;46.60
55468;BME280;41332;42.702;23.200;2022-09-09T10:01:38;94192.28;;;24.79;47.34
55468;BME280;41332;42.702;23.200;2022-09-09T10:04:20;94192.84;;;24.66;48.08
55468;BME280;41332;42.702;23.200;2022-09-09T10:06:47;94197.66;;;24.51;47.92
55468;BME280;41332;42.702;23.200;2022-09-09T10:09:26;94204.44;;;24.60;47.65
55468;BME280;41332;42.702;23.200;2022-09-09T10:20:04;94208.03;;;24.49;48.62
55468;BME280;41332;42.702;23.200;2022-09-09T10:22:44;94207.16;;;24.32;49.21
55468;BME280;41332;42.702;23.200;2022-09-09T10:28:07;94201.19;;;24.45;50.04
55468;BME280;41332;42.702;23.200;2022-09-09T10:31:37;94200.97;;;24.35;49.73
55468;BME280;41332;42.702;23.200;2022-09-09T10:33:51;94212.59;;;24.25;50.42
55468;BME280;41332;42.702;23.200;2022-09-09T10:36:23;94225.31;;;24.48;49.96
55468;BME280;41332;42.702;23.200;2022-09-09T10:39:05;94211.47;;;24.50;49.68
55468;BME280;41332;42.702;23.200;2022-09-09T10:50:08;94220.06;;;24.68;49.72
55468;BME280;41332;42.702;23.200;2022-09-09T10:55:27;94208.84;;;24.74;51.53
55468;BME280;41332;42.702;23.200;2022-09-09T10:57:57;94208.66;;;24.84;51.18
55468;BME280;41332;42.702;23.200;2022-09-09T11:00:26;94217.25;;;24.76;51.14
55468;BME280;41332;42.702;23.200;2022-09-09T11:02:58;94209.84;;;24.83;51.69
55468;BME280;41332;42.702;23.200;2022-09-09T11:05:30;94217.25;;;24.76;51.90
55468;BME280;41332;42.702;23.200;2022-09-09T11:08:03;94208.38;;;24.79;51.10
55468;BME280;41332;42.702;23.200;2022-09-09T11:11:04;94209.03;;;24.87;50.69
55468;BME280;41332;42.702;23.200;2022-09-09T11:16:40;94186.25;;;24.95;50.24
55468;BME280;41332;42.702;23.200;2022-09-09T11:19:19;94189.88;;;25.08;50.01
55468;BME280;41332;42.702;23.200;2022-09-09T11:21:49;94183.19;;;25.16;49.87
55468;BME280;41332;42.702;23.200;2022-09-09T11:40:28;94132.34;;;25.06;51.26
55468;BME280;41332;42.702;23.200;2022-09-09T11:43:03;94126.97;;;25.06;51.26
55468;BME280;41332;42.702;23.200;2022-09-09T11:45:31;94114.56;;;24.92;52.09
55468;BME280;41332;42.702;23.200;2022-09-09T11:48:00;94113.09;;;24.87;51.67
55468;BME280;41332;42.702;23.200;2022-09-09T11:53:16;94125.25;;;24.95;51.65
55468;BME280;41332;42.702;23.200;2022-09-09T11:55:42;94130.88;;;25.01;51.94
55468;BME280;41332;42.702;23.200;2022-09-09T12:00:45;94130.25;;;25.13;51.14
55468;BME280;41332;42.702;23.200;2022-09-09T12:05:58;94115.47;;;25.45;51.43
55468;BME280;41332;42.702;23.200;2022-09-09T12:08:28;94102.22;;;25.14;51.64
55468;BME280;41332;42.702;23.200;2022-09-09T12:10:57;94094.09;;;25.18;52.68
55468;BME280;41332;42.702;23.200;2022-09-09T12:13:26;94096.63;;;25.05;52.63
55468;BME280;41332;42.702;23.200;2022-09-09T12:18:34;94098.97;;;25.23;53.67
55468;BME280;41332;42.702;23.200;2022-09-09T12:26:41;94099.91;;;25.73;53.63
55468;BME280;41332;42.702;23.200;2022-09-09T12:32:12;94092.28;;;25.88;54.75
55468;BME280;41332;42.702;23.200;2022-09-09T12:39:54;94090.34;;;25.89;52.16
55468;BME280;41332;42.702;23.200;2022-09-09T12:42:21;94084.09;;;25.75;52.22
55468;BME280;41332;42.702;23.200;2022-09-09T12:44:51;94076.53;;;25.70;52.06
55468;BME280;41332;42.702;23.200;2022-09-09T12:47:22;94081.00;;;25.77;53.04
55468;BME280;41332;42.702;23.200;2022-09-09T12:49:50;94078.31;;;25.93;53.99
55468;BME280;41332;42.702;23.200;2022-09-09T12:54:45;94071.03;;;25.94;53.13
55468;BME280;41332;42.702;23.200;2022-09-09T12:57:12;94069.59;;;25.89;51.75
55468;BME280;41332;42.702;23.200;2022-09-09T12:59:40;94064.28;;;25.86;51.58
55468;BME280;41332;42.702;23.200;2022-09-09T13:02:25;94077.66;;;25.89;51.83
55468;BME280;41332;42.702;23.200;2022-09-09T13:04:51;94071.03;;;25.94;52.72
55468;BME280;41332;42.702;23.200;2022-09-09T13:07:19;94069.31;;;26.00;51.36
55468;BME280;41332;42.702;23.200;2022-09-09T13:09:46;94061.88;;;25.91;51.24
55468;BME280;41332;42.702;23.200;2022-09-09T13:12:18;94061.28;;;25.83;50.92
55468;BME280;41332;42.702;23.200;2022-09-09T13:14:47;94048.56;;;25.84;51.96
55468;BME280;41332;42.702;23.200;2022-09-09T13:17:39;94054.03;;;25.80;51.74
55468;BME280;41332;42.702;23.200;2022-09-09T13:20:06;94051.69;;;25.82;52.11
55468;BME280;41332;42.702;23.200;2022-09-09T13:22:40;94044.69;;;25.85;52.28
55468;BME280;41332;42.702;23.200;2022-09-09T13:27:40;94040.91;;;25.66;52.14
55468;BME280;41332;42.702;23.200;2022-09-09T13:30:36;94047.44;;;25.65;53.96
55468;BME280;41332;42.702;23.200;2022-09-09T13:35:35;94034.25;;;25.34;53.08
55468;BME280;41332;42.702;23.200;2022-09-09T13:38:14;94032.06;;;25.29;53.49
55468;BME280;41332;42.702;23.200;2022-09-09T13:40:39;94024.41;;;25.27;54.31
55468;BME280;41332;42.702;23.200;2022-09-09T13:43:14;94020.69;;;25.21;54.41
55468;BME280;41332;42.702;23.200;2022-09-09T13:45:53;94019.53;;;25.22;55.53
55468;BME280;41332;42.702;23.200;2022-09-09T13:48:19;94025.63;;;25.06;54.32
55468;BME280;41332;42.702;23.200;2022-09-09T13:50:57;94014.03;;;25.09;55.00
55468;BME280;41332;42.702;23.200;2022-09-09T13:53:23;94008.91;;;24.98;55.34
55468;BME280;41332;42.702;23.200;2022-09-09T13:55:49;94016.81;;;25.06;54.30
55468;BME280;41332;42.702;23.200;2022-09-09T13:58:17;94012.13;;;25.10;54.11
55468;BME280;41332;42.702;23.200;2022-09-09T14:00:44;94006.59;;;25.17;53.34
55468;BME280;41332;42.702;23.200;2022-09-09T14:03:10;94017.06;;;25.11;51.35
55468;BME280;41332;42.702;23.200;2022-09-09T14:05:36;94010.19;;;25.10;51.30
55468;BME280;41332;42.702;23.200;2022-09-09T14:08:06;94003.88;;;25.00;51.78
55468;BME280;41332;42.702;23.200;2022-09-09T14:10:34;94001.03;;;25.08;51.61
55468;BME280;41332;42.702;23.200;2022-09-09T14:13:03;94005.38;;;25.01;51.12
55468;BME280;41332;42.702;23.200;2022-09-09T14:15:28;94003.78;;;25.04;51.19
55468;BME280;41332;42.702;23.200;2022-09-09T14:17:54;93994.91;;;25.07;52.08
55468;BME280;41332;42.702;23.200;2022-09-09T14:20:20;93989.06;;;24.92;52.44
55468;BME280;41332;42.702;23.200;2022-09-09T14:22:46;93990.84;;;24.99;52.92
55468;BME280;41332;42.702;23.200;2022-09-09T14:25:11;94003.59;;;24.95;52.64
55468;BME280;41332;42.702;23.200;2022-09-09T14:27:39;94006.69;;;24.93;53.00
55468;BME280;41332;42.702;23.200;2022-09-09T14:30:05;93999.00;;;24.95;53.39
55468;BME280;41332;42.702;23.200;2022-09-09T14:32:31;93999.38;;;24.94;52.92
55468;BME280;41332;42.702;23.200;2022-09-09T14:34:56;93991.69;;;24.96;53.45
55468;BME280;41332;42.702;23.200;2022-09-09T14:37:22;93999.25;;;25.01;53.51
55468;BME280;41332;42.702;23.200;2022-09-09T14:39:47;93998.41;;;25.04;52.88
55468;BME280;41332;42.702;23.200;2022-09-09T14:42:15;94003.03;;;25.04;52.70
55468;BME280;41332;42.702;23.200;2022-09-09T14:44:41;93991.94;;;25.01;52.55
55468;BME280;41332;42.702;23.200;2022-09-09T14:47:07;93996.56;;;25.01;53.10
55468;BME280;41332;42.702;23.200;2022-09-09T14:49:34;94001.94;;;25.01;52.23
55468;BME280;41332;42.702;23.200;2022-09-09T14:51:59;94003.53;;;24.98;52.46
55468;BME280;41332;42.702;23.200;2022-09-09T14:54:25;93999.13;;;24.88;52.14
55468;BME280;41332;42.702;23.200;2022-09-09T14:56:51;94008.75;;;24.85;52.47
55468;BME280;41332;42.702;23.200;2022-09-09T14:59:16;94014.97;;;24.82;53.15
55468;BME280;41332;42.702;23.200;2022-09-09T15:01:42;94018.06;;;24.81;52.40
55468;BME280;41332;42.702;23.200;2022-09-09T15:04:07;94018.34;;;24.87;52.69
55468;BME280;41332;42.702;23.200;2022-09-09T15:06:34;94020.41;;;24.79;52.60
55468;BME280;41332;42.702;23.200;2022-09-09T15:09:02;94024.16;;;24.61;53.57
55468;BME280;41332;42.702;23.200;2022-09-09T15:11:30;94020.03;;;24.57;53.90
55468;BME280;41332;42.702;23.200;2022-09-09T15:13:56;94023.81;;;24.59;54.21
55468;BME280;41332;42.702;23.200;2022-09-09T15:16:27;94019.19;;;24.60;54.50
55468;BME280;41332;42.702;23.200;2022-09-09T15:18:56;94020.69;;;24.64;54.67
55468;BME280;41332;42.702;23.200;2022-09-09T15:21:24;94025.22;;;24.67;54.43